FACT/CPT METAR and TAF weather

Enter ICAO airport designator
Station Type Date Time Source
FACT METAR 2018/01/24 07:00 UTC NOAA

FACT 240700Z 18010KT 9999 FEW020 21/15 Q1014 NOSIG


Station Type Date Time Source
FACT Decoded METAR 2018/01/24 07:00 UTC NOAA

Cape Town, Cape Town International Airport, South Africa (FACT) 33-59S 018-36E 0M
Jan 24, 2018 - 02:00 AM EST / 2018.01.24 0700 UTC
Wind: from the S (180 degrees) at 12 MPH (10 KT):0
Visibility: greater than 7 mile(s):0
Sky conditions: mostly clear
Temperature: 69 F (21 C)
Dew Point: 59 F (15 C)
Relative Humidity: 68%
Pressure (altimeter): 29.94 in. Hg (1014 hPa)
ob: FACT 240700Z 18010KT 9999 FEW020 21/15 Q1014 NOSIG
cycle: 7

Station Type Date Time Source
FACT TAF 2018/01/24 06:09 UTC NOAA

TAF TAF FACT 240400Z 2406/2512 21010KT 9999 FEW025 SCT040
FM241200 17017KT 9999 FEW030 TX26/2412Z TN16/2504Z


Example: see airport list